Terminal Aerodrome Forecast
Issued by NWS

Home | Current Version | Previous Version | Text Only | Print | Product List | Glossary On
Versions: 1 2 3 4 5 6 7 8 9 10 11 12 13 14
000
FTPA31 PHFO 281738
TAFHJH
TAF
PHJH 281738Z 2818/2918 08008KT P6SM FEW030 SCT060
     FM282100 02012G20KT P6SM FEW030 SCT060
     FM290000 36012KT P6SM VCSH SCT030 BKN060
     FM290700 08005KT P6SM FEW030 SCT060
      AMD NOT SKED AFT 290400=

USA.gov is the U.S. government's official web portal to all federal, state and local government web resources and services.